createdAt,value
2018-02-11T00:00:29.202Z,4.00
2018-02-11T00:02:56.654Z,4.00
2018-02-11T00:05:24.198Z,4.10
2018-02-11T00:07:51.657Z,4.00
2018-02-11T00:10:19.093Z,4.00
2018-02-11T00:12:46.534Z,4.00
2018-02-11T00:15:14.021Z,3.90
2018-02-11T00:17:41.458Z,3.80
2018-02-11T00:20:08.910Z,3.80
2018-02-11T00:22:36.333Z,3.80
2018-02-11T00:25:03.768Z,3.80
2018-02-11T00:27:31.322Z,3.80
2018-02-11T00:29:58.762Z,3.80
2018-02-11T00:32:26.201Z,3.80
2018-02-11T00:34:53.646Z,3.80
2018-02-11T00:37:26.822Z,3.70
2018-02-11T00:39:55.037Z,3.60
2018-02-11T00:42:22.469Z,3.50
2018-02-11T00:44:49.905Z,3.50
2018-02-11T00:47:18.125Z,3.50
2018-02-11T00:49:45.599Z,3.50
2018-02-11T00:52:13.028Z,3.60
2018-02-11T00:54:40.453Z,3.60
2018-02-11T00:57:07.949Z,3.60
2018-02-11T00:59:35.402Z,3.80
2018-02-11T01:02:02.866Z,3.70
2018-02-11T01:04:30.315Z,3.80
2018-02-11T01:06:57.761Z,3.80
2018-02-11T01:09:25.189Z,3.70
2018-02-11T01:11:52.774Z,3.60
2018-02-11T01:14:20.258Z,3.60
2018-02-11T01:16:47.746Z,3.50
2018-02-11T01:19:15.983Z,3.50
2018-02-11T01:21:43.418Z,3.50
2018-02-11T01:24:10.898Z,3.50
2018-02-11T01:26:38.330Z,3.50
2018-02-11T01:29:05.802Z,3.40
2018-02-11T01:31:33.340Z,3.30
2018-02-11T01:34:00.774Z,3.30
2018-02-11T01:36:28.997Z,3.30
2018-02-11T01:38:56.433Z,3.20
2018-02-11T01:41:23.889Z,3.20
2018-02-11T01:43:51.427Z,3.20
2018-02-11T01:46:19.025Z,3.10
2018-02-11T01:48:46.481Z,3.10
2018-02-11T01:51:13.918Z,3.00
2018-02-11T01:53:41.417Z,3.00
2018-02-11T01:56:08.926Z,3.00
2018-02-11T01:58:36.614Z,3.00
2018-02-11T02:01:04.044Z,2.90
2018-02-11T02:03:31.533Z,2.90
2018-02-11T02:05:58.970Z,2.90
2018-02-11T02:08:26.410Z,2.90
2018-02-11T02:10:53.897Z,2.90
2018-02-11T02:13:21.341Z,2.90
2018-02-11T02:15:48.769Z,2.90
2018-02-11T02:18:16.981Z,3.00
2018-02-11T02:20:44.437Z,2.90
2018-02-11T02:23:11.874Z,2.90
2018-02-11T02:25:39.353Z,2.90
2018-02-11T02:28:06.786Z,2.90
2018-02-11T02:30:34.224Z,2.90
2018-02-11T02:33:01.724Z,2.90
2018-02-11T02:35:29.151Z,2.80
2018-02-11T02:37:56.657Z,2.90
2018-02-11T02:40:24.192Z,3.00
2018-02-11T02:42:51.626Z,2.90
2018-02-11T02:45:19.048Z,2.90
2018-02-11T02:47:47.277Z,2.90
2018-02-11T02:50:14.708Z,2.90
2018-02-11T02:52:42.177Z,3.00
2018-02-11T02:55:09.645Z,2.90
2018-02-11T02:57:37.087Z,3.00
2018-02-11T03:00:04.513Z,3.00
2018-02-11T03:02:32.713Z,3.00
2018-02-11T03:05:00.241Z,2.90
2018-02-11T03:07:27.750Z,3.00
2018-02-11T03:09:55.189Z,3.10
2018-02-11T03:12:22.657Z,3.10
2018-02-11T03:14:50.087Z,3.10
2018-02-11T03:17:17.518Z,2.90
2018-02-11T03:19:45.725Z,2.90
2018-02-11T03:22:13.215Z,2.90
2018-02-11T03:24:40.644Z,3.00
2018-02-11T03:27:08.128Z,3.00
2018-02-11T03:29:35.557Z,3.00
2018-02-11T03:32:03.033Z,3.00
2018-02-11T03:34:30.469Z,3.00
2018-02-11T03:36:57.911Z,3.00
2018-02-11T03:39:25.338Z,3.00
2018-02-11T03:41:53.532Z,3.00
2018-02-11T03:44:20.968Z,2.90
2018-02-11T03:46:49.202Z,3.00
2018-02-11T03:49:16.637Z,3.00
2018-02-11T03:51:44.119Z,3.00
2018-02-11T03:54:11.552Z,2.90
2018-02-11T03:56:39.124Z,2.90
2018-02-11T03:59:06.574Z,2.90
2018-02-11T04:01:34.041Z,2.80
2018-02-11T04:04:01.494Z,2.90
2018-02-11T04:06:28.934Z,2.90
2018-02-11T04:08:56.369Z,2.90
2018-02-11T04:11:23.804Z,2.90
2018-02-11T04:13:52.017Z,3.00
2018-02-11T04:16:19.454Z,2.90
2018-02-11T04:18:47.649Z,3.00
2018-02-11T04:21:15.221Z,2.90
2018-02-11T04:23:42.780Z,2.90
2018-02-11T04:26:10.208Z,3.00
2018-02-11T04:28:37.669Z,3.00
2018-02-11T04:31:05.113Z,3.00
2018-02-11T04:33:32.613Z,3.00
2018-02-11T04:36:00.054Z,3.00
2018-02-11T04:38:27.534Z,3.10
2018-02-11T04:40:54.984Z,3.00
2018-02-11T04:43:22.433Z,3.00
2018-02-11T04:45:49.899Z,3.00
2018-02-11T04:48:17.333Z,3.00
2018-02-11T04:50:44.801Z,3.00
2018-02-11T04:53:12.225Z,2.90
2018-02-11T04:55:39.737Z,2.80
2018-02-11T04:58:07.290Z,2.80
2018-02-11T05:00:34.730Z,2.80
2018-02-11T05:03:02.169Z,2.80
2018-02-11T05:05:29.630Z,2.80
2018-02-11T05:07:57.106Z,2.90
2018-02-11T05:10:24.569Z,2.90
2018-02-11T05:12:52.009Z,3.00
2018-02-11T05:15:19.443Z,2.90
2018-02-11T05:17:46.882Z,2.90
2018-02-11T05:20:14.309Z,2.90
2018-02-11T05:22:41.768Z,2.90
2018-02-11T05:25:09.286Z,3.00
2018-02-11T05:27:36.757Z,2.90
2018-02-11T05:30:04.194Z,2.90
2018-02-11T05:32:31.658Z,2.90
2018-02-11T05:34:59.222Z,2.90
2018-02-11T05:37:26.658Z,2.90
2018-02-11T05:39:54.085Z,2.90
2018-02-11T05:42:22.301Z,2.90
2018-02-11T05:44:49.737Z,2.90
2018-02-11T05:47:17.161Z,2.90
2018-02-11T05:49:45.361Z,2.70
2018-02-11T05:52:12.949Z,2.70
2018-02-11T05:54:40.494Z,2.70
2018-02-11T05:57:07.946Z,2.60
2018-02-11T05:59:35.416Z,2.60
2018-02-11T06:02:02.867Z,2.60
2018-02-11T06:04:30.293Z,2.50
2018-02-11T06:06:58.509Z,2.60
2018-02-11T06:09:25.952Z,2.50
2018-02-11T06:11:53.525Z,2.60
2018-02-11T06:14:20.952Z,2.60
2018-02-11T06:16:48.437Z,2.60
2018-02-11T06:19:16.002Z,2.60
2018-02-11T06:21:43.440Z,2.60
2018-02-11T06:24:10.925Z,2.60
2018-02-11T06:26:42.278Z,2.60
2018-02-11T06:29:09.717Z,2.70
2018-02-11T06:31:37.282Z,2.70
2018-02-11T06:34:04.722Z,2.70
2018-02-11T06:36:32.230Z,2.70
2018-02-11T06:38:59.627Z,2.70
2018-02-11T06:41:27.058Z,2.70
2018-02-11T06:43:54.485Z,2.70
2018-02-11T06:46:22.697Z,2.60
2018-02-11T06:48:50.185Z,2.60
2018-02-11T06:51:17.611Z,2.60
2018-02-11T06:53:45.045Z,2.60
2018-02-11T06:56:13.248Z,2.40
2018-02-11T06:58:40.721Z,2.40
2018-02-11T07:01:08.277Z,2.40
2018-02-11T07:03:35.744Z,2.30
2018-02-11T07:06:03.194Z,2.30
2018-02-11T07:08:30.634Z,2.30
2018-02-11T07:10:58.065Z,2.40
2018-02-11T07:13:26.298Z,2.50
2018-02-11T07:15:53.841Z,2.40
2018-02-11T07:18:21.286Z,2.40
2018-02-11T07:20:48.756Z,2.40
2018-02-11T07:23:16.216Z,2.40
2018-02-11T07:25:43.653Z,2.40
2018-02-11T07:28:11.081Z,2.50
2018-02-11T07:30:38.520Z,2.40
2018-02-11T07:33:06.037Z,2.30
2018-02-11T07:35:33.493Z,2.40
2018-02-11T07:38:00.917Z,2.30
2018-02-11T07:40:28.340Z,2.30
2018-02-11T07:42:56.540Z,2.30
2018-02-11T07:45:23.973Z,2.30
2018-02-11T07:47:52.213Z,2.30
2018-02-11T07:50:19.681Z,2.30
2018-02-11T07:52:47.123Z,2.30
2018-02-11T07:55:14.557Z,2.30
2018-02-11T07:57:41.989Z,2.30
2018-02-11T08:00:09.426Z,2.40
2018-02-11T08:02:36.954Z,2.30
2018-02-11T08:05:04.407Z,2.40
2018-02-11T08:07:31.854Z,2.40
2018-02-11T08:09:59.385Z,2.30
2018-02-11T08:12:26.884Z,2.40
2018-02-11T08:14:54.335Z,2.30
2018-02-11T08:17:21.770Z,2.30
2018-02-11T08:19:49.251Z,2.40
2018-02-11T08:22:16.685Z,2.40
2018-02-11T08:24:44.129Z,2.30
2018-02-11T08:27:11.635Z,2.30
2018-02-11T08:29:39.270Z,2.40
2018-02-11T08:32:06.705Z,2.40
2018-02-11T08:34:34.187Z,2.40
2018-02-11T08:37:01.618Z,2.40
2018-02-11T08:39:29.041Z,2.50
2018-02-11T08:41:57.269Z,2.50
2018-02-11T08:44:24.707Z,2.50
2018-02-11T08:46:52.133Z,2.50
2018-02-11T08:49:20.362Z,2.30
2018-02-11T08:51:47.820Z,2.30
2018-02-11T08:54:15.251Z,2.30
2018-02-11T08:56:42.689Z,2.30
2018-02-11T08:59:10.163Z,2.30
2018-02-11T09:01:37.575Z,2.20
2018-02-11T09:04:05.813Z,2.40
2018-02-11T09:06:33.225Z,2.40
2018-02-11T09:09:01.435Z,2.60
2018-02-11T09:11:28.904Z,2.50
2018-02-11T09:13:56.438Z,2.60
2018-02-11T09:16:23.865Z,2.50
2018-02-11T09:18:52.069Z,2.50
2018-02-11T09:21:20.394Z,2.50
2018-02-11T09:23:47.826Z,2.50
2018-02-11T09:26:15.341Z,2.60
2018-02-11T09:28:42.825Z,2.80
2018-02-11T09:31:10.289Z,2.80
2018-02-11T09:33:37.730Z,2.80
2018-02-11T09:36:05.161Z,2.80
2018-02-11T09:38:32.617Z,2.90
2018-02-11T09:41:00.044Z,2.90
2018-02-11T09:43:27.474Z,2.80
2018-02-11T09:45:54.905Z,2.80
2018-02-11T09:48:22.332Z,2.90
2018-02-11T09:50:50.551Z,2.90
2018-02-11T09:53:17.981Z,2.90
2018-02-11T09:55:45.410Z,3.00
2018-02-11T09:58:13.644Z,3.10
2018-02-11T10:00:41.102Z,3.10
2018-02-11T10:03:08.552Z,3.20
2018-02-11T10:05:36.009Z,3.30
2018-02-11T10:08:03.453Z,3.40
2018-02-11T10:10:30.898Z,3.40
2018-02-11T10:12:58.333Z,3.40
2018-02-11T10:15:25.842Z,3.40
2018-02-11T10:17:53.282Z,3.40
2018-02-11T10:20:20.746Z,3.40
2018-02-11T10:22:48.205Z,3.50
2018-02-11T10:25:15.659Z,3.60
2018-02-11T10:27:43.201Z,3.60
2018-02-11T10:30:10.692Z,3.70
2018-02-11T10:32:38.233Z,3.70
2018-02-11T10:35:05.680Z,3.80
2018-02-11T10:37:33.154Z,3.80
2018-02-11T10:40:00.713Z,3.90
2018-02-11T10:42:28.151Z,3.90
2018-02-11T10:44:55.586Z,4.00
2018-02-11T10:47:23.010Z,4.00
2018-02-11T10:49:51.213Z,4.00
2018-02-11T10:52:18.637Z,4.00
2018-02-11T10:54:46.874Z,4.00
2018-02-11T10:57:14.289Z,3.90
2018-02-11T10:59:41.790Z,4.00
2018-02-11T11:02:09.331Z,4.00
2018-02-11T11:04:36.745Z,4.00
2018-02-11T11:07:04.978Z,3.90
2018-02-11T11:09:32.436Z,3.80
2018-02-11T11:11:59.868Z,3.90
2018-02-11T11:14:27.381Z,4.00
2018-02-11T11:16:54.815Z,4.00
2018-02-11T11:19:22.245Z,4.00
2018-02-11T11:21:49.730Z,4.10
2018-02-11T11:24:17.289Z,4.00
2018-02-11T11:26:44.745Z,4.00
2018-02-11T11:29:12.203Z,4.10
2018-02-11T11:31:39.637Z,4.00
2018-02-11T11:34:07.102Z,4.10
2018-02-11T11:36:34.657Z,4.10
2018-02-11T11:39:02.101Z,4.10
2018-02-11T11:41:29.525Z,4.20
2018-02-11T11:43:56.954Z,4.20
2018-02-11T11:46:24.562Z,4.20
2018-02-11T11:48:52.048Z,4.20
2018-02-11T11:51:19.577Z,4.30
2018-02-11T11:53:47.001Z,4.30
2018-02-11T11:56:15.221Z,4.50
2018-02-11T11:58:42.662Z,4.50
2018-02-11T12:01:10.129Z,4.70
2018-02-11T12:03:37.585Z,4.90
2018-02-11T12:06:05.048Z,5.00
2018-02-11T12:08:32.605Z,5.00
2018-02-11T12:11:00.057Z,5.10
2018-02-11T12:13:27.622Z,5.00
2018-02-11T12:15:55.177Z,4.80
2018-02-11T12:18:22.609Z,4.80
2018-02-11T12:20:50.045Z,4.80
2018-02-11T12:23:18.250Z,4.90
2018-02-11T12:25:45.717Z,4.90
2018-02-11T12:28:13.148Z,4.90
2018-02-11T12:30:40.638Z,5.00
2018-02-11T12:33:08.067Z,5.10
2018-02-11T12:35:35.554Z,5.30
2018-02-11T12:38:03.115Z,5.40
2018-02-11T12:40:30.648Z,5.50
2018-02-11T12:42:58.125Z,5.60
2018-02-11T12:45:25.586Z,5.60
2018-02-11T12:47:53.029Z,5.70
2018-02-11T12:50:20.466Z,5.70
2018-02-11T12:52:47.952Z,5.60
2018-02-11T12:55:15.402Z,5.60
2018-02-11T12:57:42.832Z,5.60
2018-02-11T13:00:10.253Z,5.70
2018-02-11T13:02:38.493Z,5.70
2018-02-11T13:05:05.919Z,5.70
2018-02-11T13:07:33.362Z,5.80
2018-02-11T13:10:01.411Z,5.90
2018-02-11T13:12:28.308Z,5.90
2018-02-11T13:14:55.857Z,5.90
2018-02-11T13:17:23.371Z,5.90
2018-02-11T13:19:51.577Z,6.00
2018-02-11T13:22:19.045Z,5.90
2018-02-11T13:24:46.453Z,5.90
2018-02-11T13:27:13.978Z,6.00
2018-02-11T13:29:41.434Z,6.00
2018-02-11T13:32:08.893Z,6.10
2018-02-11T13:34:36.329Z,6.10
2018-02-11T13:37:03.769Z,6.10
2018-02-11T13:39:31.205Z,6.20
2018-02-11T13:41:59.406Z,6.30
2018-02-11T13:44:26.881Z,6.20
2018-02-11T13:46:54.427Z,6.20
2018-02-11T13:49:21.897Z,6.30
2018-02-11T13:51:49.361Z,6.30
2018-02-11T13:54:16.797Z,6.40
2018-02-11T13:56:44.273Z,6.40
2018-02-11T13:59:11.758Z,6.30
2018-02-11T14:01:39.242Z,6.10
2018-02-11T14:04:07.469Z,6.10
2018-02-11T14:06:34.894Z,6.20
2018-02-11T14:09:02.323Z,6.20
2018-02-11T14:11:30.654Z,6.20
2018-02-11T14:13:58.093Z,6.10
2018-02-11T14:16:25.521Z,6.10
2018-02-11T14:18:52.965Z,6.10
2018-02-11T14:21:21.165Z,6.10
2018-02-11T14:23:48.749Z,6.00
2018-02-11T14:26:16.178Z,6.10
2018-02-11T14:28:43.661Z,6.20
2018-02-11T14:31:11.114Z,6.30
2018-02-11T14:33:38.548Z,6.50
2018-02-11T14:36:05.965Z,6.50
2018-02-11T14:38:34.169Z,6.20
2018-02-11T14:41:01.655Z,6.20
2018-02-11T14:43:29.107Z,6.20
2018-02-11T14:45:56.529Z,6.10
2018-02-11T14:48:24.033Z,6.10
2018-02-11T14:50:51.477Z,6.10
2018-02-11T14:53:18.905Z,6.30
2018-02-11T14:55:46.335Z,6.40
2018-02-11T14:58:13.849Z,6.50
2018-02-11T15:00:41.280Z,6.60
2018-02-11T15:03:08.765Z,6.60
2018-02-11T15:05:36.206Z,6.60
2018-02-11T15:08:03.672Z,6.60
2018-02-11T15:10:31.132Z,6.80
2018-02-11T15:12:58.596Z,6.80
2018-02-11T15:15:26.131Z,6.80
2018-02-11T15:17:53.605Z,6.60
2018-02-11T15:20:21.165Z,6.60
2018-02-11T15:22:48.617Z,6.70
2018-02-11T15:25:16.053Z,6.40
2018-02-11T15:27:43.489Z,6.00
2018-02-11T15:30:10.926Z,5.90
2018-02-11T15:32:39.158Z,5.50
2018-02-11T15:35:06.590Z,5.40
2018-02-11T15:37:34.066Z,5.30
2018-02-11T15:40:01.506Z,5.30
2018-02-11T15:42:28.993Z,5.30
2018-02-11T15:44:56.437Z,5.30
2018-02-11T15:47:23.901Z,5.40
2018-02-11T15:49:51.329Z,5.40
2018-02-11T15:52:18.820Z,5.40
2018-02-11T15:54:46.238Z,5.40
2018-02-11T15:57:13.717Z,5.50
2018-02-11T15:59:41.169Z,5.40
2018-02-11T16:02:08.604Z,5.40
2018-02-11T16:04:36.030Z,5.40
2018-02-11T16:07:03.462Z,5.40
2018-02-11T16:09:30.897Z,5.30
2018-02-11T16:11:58.332Z,5.30
2018-02-11T16:14:25.761Z,5.40
2018-02-11T16:16:53.999Z,5.30
2018-02-11T16:19:21.529Z,5.30
2018-02-11T16:21:49.020Z,5.30
2018-02-11T16:24:16.396Z,5.20
2018-02-11T16:26:43.835Z,5.20
2018-02-11T16:29:11.269Z,5.10
2018-02-11T16:31:38.829Z,5.00
2018-02-11T16:34:06.253Z,5.00
2018-02-11T16:36:33.684Z,4.90
2018-02-11T16:39:01.882Z,4.80
2018-02-11T16:41:29.391Z,4.80
2018-02-11T16:43:56.853Z,4.80
2018-02-11T16:46:24.281Z,4.70
2018-02-11T16:48:51.749Z,4.70
2018-02-11T16:51:19.221Z,4.70
2018-02-11T16:53:46.668Z,4.60
2018-02-11T16:56:14.105Z,4.60
2018-02-11T16:58:41.525Z,4.60
2018-02-11T17:01:08.957Z,4.60
2018-02-11T17:03:37.198Z,4.60
2018-02-11T17:06:04.654Z,4.50
2018-02-11T17:08:32.085Z,4.60
2018-02-11T17:10:59.505Z,4.60
2018-02-11T17:13:27.704Z,4.60
2018-02-11T17:15:55.134Z,4.60
2018-02-11T17:18:23.356Z,4.60
2018-02-11T17:20:50.832Z,4.60
2018-02-11T17:23:18.290Z,4.50
2018-02-11T17:25:45.734Z,4.50
2018-02-11T17:28:13.157Z,4.40
2018-02-11T17:30:40.666Z,4.40
2018-02-11T17:33:08.120Z,4.40
2018-02-11T17:35:35.665Z,4.30
2018-02-11T17:38:03.098Z,4.30
2018-02-11T17:40:30.517Z,4.30
2018-02-11T17:42:58.872Z,4.30
2018-02-11T17:45:26.494Z,4.20
2018-02-11T17:47:53.922Z,4.20
2018-02-11T17:50:22.146Z,4.20
2018-02-11T17:52:49.583Z,4.10
2018-02-11T17:55:17.014Z,4.20
2018-02-11T17:57:45.241Z,4.20
2018-02-11T18:00:14.190Z,4.10
2018-02-11T18:02:41.681Z,4.10
2018-02-11T18:05:09.125Z,4.20
2018-02-11T18:07:36.553Z,4.10
2018-02-11T18:10:03.981Z,4.10
2018-02-11T18:12:32.168Z,4.10
2018-02-11T18:15:00.372Z,4.10
2018-02-11T18:17:27.802Z,4.00
2018-02-11T18:19:56.018Z,4.00
2018-02-11T18:22:23.484Z,4.00
2018-02-11T18:24:50.915Z,4.00
2018-02-11T18:27:18.359Z,4.00
2018-02-11T18:29:45.853Z,4.00
2018-02-11T18:32:13.305Z,4.00
2018-02-11T18:34:40.945Z,4.00
2018-02-11T18:37:08.518Z,4.10
2018-02-11T18:39:36.078Z,4.10
2018-02-11T18:42:03.508Z,4.10
2018-02-11T18:44:30.954Z,4.10
2018-02-11T18:46:59.150Z,4.10
2018-02-11T18:49:26.721Z,4.10
2018-02-11T18:51:54.162Z,4.10
2018-02-11T18:54:21.632Z,4.10
2018-02-11T18:56:49.094Z,4.20
2018-02-11T18:59:16.517Z,4.20
2018-02-11T19:01:43.989Z,4.20
2018-02-11T19:04:11.566Z,4.20
2018-02-11T19:06:39.002Z,4.10
2018-02-11T19:09:06.473Z,4.10
2018-02-11T19:11:33.918Z,4.10
2018-02-11T19:14:01.352Z,4.00
2018-02-11T19:16:29.562Z,4.00
2018-02-11T19:18:57.021Z,4.00
2018-02-11T19:21:24.456Z,4.00
2018-02-11T19:23:52.028Z,3.90
2018-02-11T19:26:19.466Z,3.90
2018-02-11T19:28:46.884Z,3.90
2018-02-11T19:31:15.130Z,3.80
2018-02-11T19:33:42.582Z,3.80
2018-02-11T19:36:10.133Z,3.80
2018-02-11T19:38:37.604Z,3.80
2018-02-11T19:41:05.035Z,3.80
2018-02-11T19:43:32.478Z,3.80
2018-02-11T19:45:59.961Z,3.70
2018-02-11T19:48:27.633Z,3.70
2018-02-11T19:50:55.066Z,3.60
2018-02-11T19:53:23.558Z,3.60
2018-02-11T19:55:50.975Z,3.60
2018-02-11T19:58:18.473Z,3.60
2018-02-11T20:00:45.889Z,3.60
2018-02-11T20:03:13.397Z,3.60
2018-02-11T20:05:40.835Z,3.60
2018-02-11T20:08:08.271Z,3.60
2018-02-11T20:10:35.724Z,3.60
2018-02-11T20:13:03.226Z,3.50
2018-02-11T20:15:30.666Z,3.50
2018-02-11T20:17:58.124Z,3.50
2018-02-11T20:20:25.642Z,3.60
2018-02-11T20:22:53.061Z,3.50
2018-02-11T20:25:20.497Z,3.50
2018-02-11T20:27:47.931Z,3.50
2018-02-11T20:30:15.392Z,3.50
2018-02-11T20:32:42.873Z,3.50
2018-02-11T20:35:10.328Z,3.50
2018-02-11T20:37:37.879Z,3.40
2018-02-11T20:40:05.293Z,3.40
2018-02-11T20:42:32.721Z,3.40
2018-02-11T20:45:00.249Z,3.30
2018-02-11T20:47:27.674Z,3.30
2018-02-11T20:49:55.154Z,3.30
2018-02-11T20:52:22.619Z,3.20
2018-02-11T20:54:50.066Z,3.20
2018-02-11T20:57:17.522Z,3.20
2018-02-11T20:59:44.970Z,3.20
2018-02-11T21:02:12.411Z,3.10
2018-02-11T21:04:39.833Z,3.10
2018-02-11T21:07:08.050Z,3.10
2018-02-11T21:09:35.502Z,3.00
2018-02-11T21:12:02.972Z,3.10
2018-02-11T21:14:30.460Z,3.10
2018-02-11T21:16:58.668Z,3.00
2018-02-11T21:19:26.898Z,3.00
2018-02-11T21:21:54.424Z,3.00
2018-02-11T21:24:21.898Z,3.00
2018-02-11T21:26:49.354Z,2.90
2018-02-11T21:29:16.793Z,2.90
2018-02-11T21:31:44.370Z,2.90
2018-02-11T21:34:11.830Z,2.90
2018-02-11T21:36:39.259Z,2.90
2018-02-11T21:39:06.733Z,2.90
2018-02-11T21:41:34.165Z,2.80
2018-02-11T21:44:01.586Z,2.80
2018-02-11T21:46:29.800Z,2.80
2018-02-11T21:48:57.285Z,2.70
2018-02-11T21:51:24.714Z,4.00
2018-02-11T21:53:52.135Z,2.80
2018-02-11T21:56:20.340Z,2.70
2018-02-11T21:58:47.821Z,2.70
2018-02-11T22:01:15.281Z,2.70
2018-02-11T22:03:42.741Z,2.70
2018-02-11T22:06:10.182Z,2.70
2018-02-11T22:08:37.745Z,2.60
2018-02-11T22:11:05.209Z,2.70
2018-02-11T22:13:32.662Z,2.60
2018-02-11T22:16:00.110Z,2.70
2018-02-11T22:18:27.524Z,2.60
2018-02-11T22:20:55.753Z,2.50
2018-02-11T22:23:23.186Z,2.50
2018-02-11T22:25:50.665Z,2.60
2018-02-11T22:28:18.109Z,2.50
2018-02-11T22:30:45.571Z,2.50
2018-02-11T22:33:13.028Z,2.50
2018-02-11T22:35:40.492Z,2.50
2018-02-11T22:38:07.957Z,2.50
2018-02-11T22:40:35.381Z,2.50
2018-02-11T22:43:02.828Z,2.40
2018-02-11T22:45:30.249Z,2.40
2018-02-11T22:47:57.685Z,2.40
2018-02-11T22:50:25.229Z,2.40
2018-02-11T22:52:52.668Z,2.40
2018-02-11T22:55:20.094Z,2.40
2018-02-11T22:57:47.600Z,2.30
2018-02-11T23:00:15.048Z,2.30
2018-02-11T23:02:42.525Z,2.30
2018-02-11T23:05:09.969Z,2.30
2018-02-11T23:07:37.397Z,2.30
2018-02-11T23:10:04.872Z,2.30
2018-02-11T23:12:32.304Z,2.30
2018-02-11T23:14:59.725Z,2.30
2018-02-11T23:17:27.925Z,2.30
2018-02-11T23:19:55.361Z,2.20
2018-02-11T23:22:23.557Z,2.20
2018-02-11T23:24:51.052Z,2.20
2018-02-11T23:27:18.481Z,2.20
2018-02-11T23:29:45.968Z,2.20
2018-02-11T23:32:13.408Z,2.20
2018-02-11T23:34:40.845Z,2.20
2018-02-11T23:37:08.343Z,2.10
2018-02-11T23:39:35.769Z,2.10
2018-02-11T23:42:03.201Z,2.10
2018-02-11T23:44:31.406Z,2.10
2018-02-11T23:46:58.888Z,2.00
2018-02-11T23:49:26.332Z,2.10
2018-02-11T23:51:53.762Z,2.10
2018-02-11T23:54:21.192Z,2.00
2018-02-11T23:56:48.620Z,2.00
2018-02-11T23:59:16.148Z,2.00
